sensor_id;sensor_type;location;lat;lon;timestamp;pressure;altitude;pressure_sealevel;temperature;humidity
50672;BME280;46021;55.882;37.654;2022-12-07T00:01:40;100707.06;;;-8.92;52.00
50672;BME280;46021;55.882;37.654;2022-12-07T00:04:10;100706.97;;;-8.93;52.27
50672;BME280;46021;55.882;37.654;2022-12-07T00:06:39;100702.66;;;-8.94;52.12
50672;BME280;46021;55.882;37.654;2022-12-07T00:09:10;100704.81;;;-9.00;52.05
50672;BME280;46021;55.882;37.654;2022-12-07T00:11:38;100716.75;;;-8.98;52.51
50672;BME280;46021;55.882;37.654;2022-12-07T00:14:07;100713.19;;;-9.02;52.26
50672;BME280;46021;55.882;37.654;2022-12-07T00:16:34;100709.66;;;-9.04;52.49
50672;BME280;46021;55.882;37.654;2022-12-07T00:19:03;100711.34;;;-9.04;52.39
50672;BME280;46021;55.882;37.654;2022-12-07T00:21:32;100690.38;;;-9.16;51.92
50672;BME280;46021;55.882;37.654;2022-12-07T00:24:00;100698.53;;;-9.07;52.35
50672;BME280;46021;55.882;37.654;2022-12-07T00:26:31;100704.06;;;-9.13;52.16
50672;BME280;46021;55.882;37.654;2022-12-07T00:29:02;100711.06;;;-9.09;52.17
50672;BME280;46021;55.882;37.654;2022-12-07T00:31:31;100696.28;;;-9.16;52.33
50672;BME280;46021;55.882;37.654;2022-12-07T00:34:01;100708.22;;;-9.13;52.05
50672;BME280;46021;55.882;37.654;2022-12-07T00:36:28;100706.19;;;-9.19;51.96
50672;BME280;46021;55.882;37.654;2022-12-07T00:38:57;100706.19;;;-9.19;52.25
50672;BME280;46021;55.882;37.654;2022-12-07T00:41:26;100703.47;;;-9.22;52.16
50672;BME280;46021;55.882;37.654;2022-12-07T00:43:56;100702.88;;;-9.31;52.21
50672;BME280;46021;55.882;37.654;2022-12-07T00:46:24;100715.13;;;-9.24;52.31
50672;BME280;46021;55.882;37.654;2022-12-07T00:48:52;100719.19;;;-9.26;52.29
50672;BME280;46021;55.882;37.654;2022-12-07T00:51:22;100700.94;;;-9.35;52.50
50672;BME280;46021;55.882;37.654;2022-12-07T00:53:49;100708.69;;;-9.32;52.30
50672;BME280;46021;55.882;37.654;2022-12-07T00:56:18;100717.84;;;-9.34;52.60
50672;BME280;46021;55.882;37.654;2022-12-07T00:58:49;100711.59;;;-9.39;52.50
50672;BME280;46021;55.882;37.654;2022-12-07T01:01:18;100711.44;;;-9.43;52.35
50672;BME280;46021;55.882;37.654;2022-12-07T01:03:45;100711.22;;;-9.46;52.25
50672;BME280;46021;55.882;37.654;2022-12-07T01:06:14;100712.78;;;-9.48;52.51
50672;BME280;46021;55.882;37.654;2022-12-07T01:08:42;100708.31;;;-9.52;52.49
50672;BME280;46021;55.882;37.654;2022-12-07T01:11:12;100707.50;;;-9.51;52.71
50672;BME280;46021;55.882;37.654;2022-12-07T01:13:40;100709.28;;;-9.50;52.66
50672;BME280;46021;55.882;37.654;2022-12-07T01:16:09;100713.25;;;-9.53;52.58
50672;BME280;46021;55.882;37.654;2022-12-07T01:18:38;100710.63;;;-9.55;52.45
50672;BME280;46021;55.882;37.654;2022-12-07T01:21:07;100704.50;;;-9.58;52.74
50672;BME280;46021;55.882;37.654;2022-12-07T01:23:35;100715.47;;;-9.58;52.70
50672;BME280;46021;55.882;37.654;2022-12-07T01:26:04;100702.75;;;-9.59;52.49
50672;BME280;46021;55.882;37.654;2022-12-07T01:28:31;100704.31;;;-9.62;52.69
50672;BME280;46021;55.882;37.654;2022-12-07T01:31:00;100705.19;;;-9.61;52.80
50672;BME280;46021;55.882;37.654;2022-12-07T01:33:28;100696.25;;;-9.69;52.81
50672;BME280;46021;55.882;37.654;2022-12-07T01:36:02;100709.72;;;-9.69;52.74
50672;BME280;46021;55.882;37.654;2022-12-07T01:38:29;100707.09;;;-9.70;52.93
50672;BME280;46021;55.882;37.654;2022-12-07T01:40:57;100700.22;;;-9.73;52.88
50672;BME280;46021;55.882;37.654;2022-12-07T01:43:26;100700.88;;;-9.75;52.87
50672;BME280;46021;55.882;37.654;2022-12-07T01:45:54;100701.66;;;-9.76;52.96
50672;BME280;46021;55.882;37.654;2022-12-07T01:48:25;100690.59;;;-9.78;52.89
50672;BME280;46021;55.882;37.654;2022-12-07T01:50:56;100687.09;;;-9.81;52.81
50672;BME280;46021;55.882;37.654;2022-12-07T01:53:26;100699.03;;;-9.78;53.10
50672;BME280;46021;55.882;37.654;2022-12-07T01:55:56;100697.75;;;-9.85;52.85
50672;BME280;46021;55.882;37.654;2022-12-07T01:58:25;100689.31;;;-9.85;52.95
50672;BME280;46021;55.882;37.654;2022-12-07T02:00:52;100689.78;;;-9.91;52.94
50672;BME280;46021;55.882;37.654;2022-12-07T02:03:22;100686.09;;;-9.96;53.29
50672;BME280;46021;55.882;37.654;2022-12-07T02:05:51;100689.59;;;-9.94;53.46
50672;BME280;46021;55.882;37.654;2022-12-07T02:08:20;100686.84;;;-9.97;53.08
50672;BME280;46021;55.882;37.654;2022-12-07T02:10:48;100689.16;;;-10.00;53.38
50672;BME280;46021;55.882;37.654;2022-12-07T02:13:18;100694.00;;;-10.03;53.32
50672;BME280;46021;55.882;37.654;2022-12-07T02:16:12;100684.50;;;-10.07;53.60
50672;BME280;46021;55.882;37.654;2022-12-07T02:18:54;100693.59;;;-10.09;53.51
50672;BME280;46021;55.882;37.654;2022-12-07T02:21:30;100686.59;;;-10.13;53.42
50672;BME280;46021;55.882;37.654;2022-12-07T02:24:14;100692.22;;;-10.17;53.56
50672;BME280;46021;55.882;37.654;2022-12-07T02:27:13;100679.19;;;-10.24;53.72
50672;BME280;46021;55.882;37.654;2022-12-07T02:29:54;100675.03;;;-10.23;54.03
50672;BME280;46021;55.882;37.654;2022-12-07T02:32:28;100678.78;;;-10.30;54.17
50672;BME280;46021;55.882;37.654;2022-12-07T02:35:04;100667.56;;;-10.35;54.01
50672;BME280;46021;55.882;37.654;2022-12-07T02:37:35;100677.06;;;-10.31;53.83
50672;BME280;46021;55.882;37.654;2022-12-07T02:40:09;100679.88;;;-10.26;53.91
50672;BME280;46021;55.882;37.654;2022-12-07T02:42:42;100673.06;;;-10.27;54.04
50672;BME280;46021;55.882;37.654;2022-12-07T02:45:17;100681.38;;;-10.28;53.83
50672;BME280;46021;55.882;37.654;2022-12-07T02:47:48;100675.47;;;-10.29;53.78
50672;BME280;46021;55.882;37.654;2022-12-07T02:50:18;100675.13;;;-10.35;54.26
50672;BME280;46021;55.882;37.654;2022-12-07T02:52:46;100678.78;;;-10.30;53.70
50672;BME280;46021;55.882;37.654;2022-12-07T02:55:15;100683.66;;;-10.33;53.74
50672;BME280;46021;55.882;37.654;2022-12-07T02:57:57;100679.28;;;-10.35;54.19
50672;BME280;46021;55.882;37.654;2022-12-07T03:00:37;100676.84;;;-10.34;54.04
50672;BME280;46021;55.882;37.654;2022-12-07T03:03:10;100670.53;;;-10.41;54.47
50672;BME280;46021;55.882;37.654;2022-12-07T03:06:03;100675.00;;;-10.36;54.53
50672;BME280;46021;55.882;37.654;2022-12-07T03:08:42;100682.56;;;-10.36;54.17
50672;BME280;46021;55.882;37.654;2022-12-07T03:11:12;100675.88;;;-10.36;54.55
50672;BME280;46021;55.882;37.654;2022-12-07T03:13:45;100681.69;;;-10.37;54.14
50672;BME280;46021;55.882;37.654;2022-12-07T03:16:19;100684.09;;;-10.38;54.08
50672;BME280;46021;55.882;37.654;2022-12-07T03:18:50;100680.63;;;-10.41;54.06
50672;BME280;46021;55.882;37.654;2022-12-07T03:21:23;100685.53;;;-10.42;54.31
50672;BME280;46021;55.882;37.654;2022-12-07T03:23:53;100677.97;;;-10.42;54.82
50672;BME280;46021;55.882;37.654;2022-12-07T03:26:24;100680.41;;;-10.44;54.79
50672;BME280;46021;55.882;37.654;2022-12-07T03:28:58;100679.53;;;-10.44;54.66
50672;BME280;46021;55.882;37.654;2022-12-07T03:31:31;100666.19;;;-10.55;54.95
50672;BME280;46021;55.882;37.654;2022-12-07T03:34:06;100657.34;;;-10.62;54.81
50672;BME280;46021;55.882;37.654;2022-12-07T03:36:39;100656.56;;;-10.61;54.95
50672;BME280;46021;55.882;37.654;2022-12-07T03:39:17;100677.91;;;-10.55;54.93
50672;BME280;46021;55.882;37.654;2022-12-07T03:41:47;100675.63;;;-10.52;55.38
50672;BME280;46021;55.882;37.654;2022-12-07T03:44:15;100672.78;;;-10.57;55.26
50672;BME280;46021;55.882;37.654;2022-12-07T03:46:49;100668.63;;;-10.56;55.25
50672;BME280;46021;55.882;37.654;2022-12-07T03:49:23;100670.72;;;-10.63;55.09
50672;BME280;46021;55.882;37.654;2022-12-07T03:51:55;100668.88;;;-10.65;55.46
50672;BME280;46021;55.882;37.654;2022-12-07T03:54:27;100664.69;;;-10.65;54.97
50672;BME280;46021;55.882;37.654;2022-12-07T03:56:58;100669.53;;;-10.68;55.31
50672;BME280;46021;55.882;37.654;2022-12-07T03:59:25;100664.50;;;-10.68;55.17
50672;BME280;46021;55.882;37.654;2022-12-07T04:01:55;100661.97;;;-10.68;55.68
50672;BME280;46021;55.882;37.654;2022-12-07T04:04:24;100666.69;;;-10.72;55.19
50672;BME280;46021;55.882;37.654;2022-12-07T04:06:52;100666.69;;;-10.72;55.19
50672;BME280;46021;55.882;37.654;2022-12-07T04:09:19;100668.22;;;-10.74;55.15
50672;BME280;46021;55.882;37.654;2022-12-07T04:11:46;100662.09;;;-10.78;55.35
50672;BME280;46021;55.882;37.654;2022-12-07T04:14:14;100664.50;;;-10.80;55.85
50672;BME280;46021;55.882;37.654;2022-12-07T04:16:47;100659.28;;;-10.83;56.53
50672;BME280;46021;55.882;37.654;2022-12-07T04:19:17;100668.38;;;-10.85;56.35
50672;BME280;46021;55.882;37.654;2022-12-07T04:21:45;100650.31;;;-10.91;56.25
50672;BME280;46021;55.882;37.654;2022-12-07T04:24:14;100651.63;;;-10.84;56.50
50672;BME280;46021;55.882;37.654;2022-12-07T04:26:42;100654.13;;;-10.84;56.60
50672;BME280;46021;55.882;37.654;2022-12-07T04:29:09;100658.19;;;-10.86;56.56
50672;BME280;46021;55.882;37.654;2022-12-07T04:31:37;100665.19;;;-10.82;56.48
50672;BME280;46021;55.882;37.654;2022-12-07T04:34:05;100663.41;;;-10.83;56.51
50672;BME280;46021;55.882;37.654;2022-12-07T04:36:34;100666.31;;;-10.90;56.74
50672;BME280;46021;55.882;37.654;2022-12-07T04:39:03;100662.25;;;-10.88;56.44
50672;BME280;46021;55.882;37.654;2022-12-07T04:41:31;100662.81;;;-10.92;57.31
50672;BME280;46021;55.882;37.654;2022-12-07T04:44:00;100653.81;;;-11.01;56.88
50672;BME280;46021;55.882;37.654;2022-12-07T04:46:29;100657.53;;;-10.95;57.03
50672;BME280;46021;55.882;37.654;2022-12-07T04:48:57;100662.16;;;-11.02;57.36
50672;BME280;46021;55.882;37.654;2022-12-07T04:51:26;100658.66;;;-11.04;57.58
50672;BME280;46021;55.882;37.654;2022-12-07T04:53:56;100664.69;;;-11.02;57.89
50672;BME280;46021;55.882;37.654;2022-12-07T04:56:24;100665.31;;;-11.04;57.55
50672;BME280;46021;55.882;37.654;2022-12-07T04:58:52;100660.97;;;-11.07;57.65
50672;BME280;46021;55.882;37.654;2022-12-07T05:01:20;100666.75;;;-11.08;57.66
50672;BME280;46021;55.882;37.654;2022-12-07T05:03:48;100659.75;;;-11.12;58.34
50672;BME280;46021;55.882;37.654;2022-12-07T05:06:15;100662.28;;;-11.12;57.68
50672;BME280;46021;55.882;37.654;2022-12-07T05:08:44;100665.34;;;-11.16;57.59
50672;BME280;46021;55.882;37.654;2022-12-07T05:11:13;100667.75;;;-11.18;57.70
50672;BME280;46021;55.882;37.654;2022-12-07T05:14:01;100670.69;;;-11.23;58.88
50672;BME280;46021;55.882;37.654;2022-12-07T05:16:28;100679.38;;;-11.31;58.89
50672;BME280;46021;55.882;37.654;2022-12-07T05:18:56;100674.09;;;-11.34;59.31
50672;BME280;46021;55.882;37.654;2022-12-07T05:21:23;100675.88;;;-11.33;58.93
50672;BME280;46021;55.882;37.654;2022-12-07T05:23:50;100671.59;;;-11.34;58.87
50672;BME280;46021;55.882;37.654;2022-12-07T05:26:19;100676.19;;;-11.41;59.23
50672;BME280;46021;55.882;37.654;2022-12-07T05:28:50;100667.09;;;-11.50;58.53
50672;BME280;46021;55.882;37.654;2022-12-07T05:31:17;100666.44;;;-11.48;59.62
50672;BME280;46021;55.882;37.654;2022-12-07T05:33:44;100663.06;;;-11.60;59.28
50672;BME280;46021;55.882;37.654;2022-12-07T05:36:11;100669.19;;;-11.57;59.03
50672;BME280;46021;55.882;37.654;2022-12-07T05:38:38;100673.00;;;-11.62;59.64
50672;BME280;46021;55.882;37.654;2022-12-07T05:41:06;100663.50;;;-11.66;59.65
50672;BME280;46021;55.882;37.654;2022-12-07T05:43:55;100674.97;;;-11.69;60.62
50672;BME280;46021;55.882;37.654;2022-12-07T05:46:22;100675.16;;;-11.66;59.60
50672;BME280;46021;55.882;37.654;2022-12-07T05:48:49;100670.69;;;-11.70;60.06
50672;BME280;46021;55.882;37.654;2022-12-07T05:51:16;100665.09;;;-11.66;60.35
50672;BME280;46021;55.882;37.654;2022-12-07T05:53:44;100665.03;;;-11.68;60.65
50672;BME280;46021;55.882;37.654;2022-12-07T05:56:11;100650.56;;;-11.70;60.13
50672;BME280;46021;55.882;37.654;2022-12-07T05:58:38;100641.84;;;-11.75;60.97
50672;BME280;46021;55.882;37.654;2022-12-07T06:01:24;100668.28;;;-11.69;60.76
50672;BME280;46021;55.882;37.654;2022-12-07T06:03:51;100657.13;;;-11.72;60.99
50672;BME280;46021;55.882;37.654;2022-12-07T06:06:18;100657.47;;;-11.68;60.68
50672;BME280;46021;55.882;37.654;2022-12-07T06:08:46;100649.94;;;-11.68;60.39
50672;BME280;46021;55.882;37.654;2022-12-07T06:11:13;100666.56;;;-11.58;60.01
50672;BME280;46021;55.882;37.654;2022-12-07T06:13:58;100656.50;;;-11.58;61.13
50672;BME280;46021;55.882;37.654;2022-12-07T06:16:26;100648.84;;;-11.71;61.98
50672;BME280;46021;55.882;37.654;2022-12-07T06:18:53;100664.69;;;-11.61;61.94
50672;BME280;46021;55.882;37.654;2022-12-07T06:21:20;100664.03;;;-11.58;62.03
50672;BME280;46021;55.882;37.654;2022-12-07T06:23:47;100660.00;;;-11.56;61.01
50672;BME280;46021;55.882;37.654;2022-12-07T06:26:15;100661.53;;;-11.58;62.42
50672;BME280;46021;55.882;37.654;2022-12-07T06:28:42;100663.94;;;-11.48;62.16
50672;BME280;46021;55.882;37.654;2022-12-07T06:31:09;100660.66;;;-11.47;62.52
50672;BME280;46021;55.882;37.654;2022-12-07T06:33:38;100654.53;;;-11.39;62.19
50672;BME280;46021;55.882;37.654;2022-12-07T06:36:05;100652.88;;;-11.38;61.53
50672;BME280;46021;55.882;37.654;2022-12-07T06:38:33;100654.94;;;-11.32;61.08
50672;BME280;46021;55.882;37.654;2022-12-07T06:41:00;100652.53;;;-11.31;62.13
50672;BME280;46021;55.882;37.654;2022-12-07T06:43:27;100648.38;;;-11.30;61.45
50672;BME280;46021;55.882;37.654;2022-12-07T06:45:54;100656.94;;;-11.28;62.74
50672;BME280;46021;55.882;37.654;2022-12-07T06:48:21;100664.13;;;-11.21;62.05
50672;BME280;46021;55.882;37.654;2022-12-07T06:50:50;100664.13;;;-11.21;62.54
50672;BME280;46021;55.882;37.654;2022-12-07T06:53:17;100657.13;;;-11.25;62.71
50672;BME280;46021;55.882;37.654;2022-12-07T06:55:44;100649.03;;;-11.21;62.26
50672;BME280;46021;55.882;37.654;2022-12-07T06:58:11;100652.97;;;-11.13;61.70
50672;BME280;46021;55.882;37.654;2022-12-07T07:00:38;100673.31;;;-11.10;62.66
50672;BME280;46021;55.882;37.654;2022-12-07T07:03:06;100663.47;;;-11.07;62.84
50672;BME280;46021;55.882;37.654;2022-12-07T07:05:33;100664.78;;;-11.12;63.39
50672;BME280;46021;55.882;37.654;2022-12-07T07:08:02;100660.09;;;-11.07;63.07
50672;BME280;46021;55.882;37.654;2022-12-07T07:10:29;100660.63;;;-11.00;63.41
50672;BME280;46021;55.882;37.654;2022-12-07T07:12:56;100664.13;;;-10.98;63.37
50672;BME280;46021;55.882;37.654;2022-12-07T07:15:23;100650.44;;;-11.01;63.21
50672;BME280;46021;55.882;37.654;2022-12-07T07:17:50;100648.22;;;-10.96;63.35
50672;BME280;46021;55.882;37.654;2022-12-07T07:20:17;100651.38;;;-10.87;64.20
50672;BME280;46021;55.882;37.654;2022-12-07T07:22:45;100645.91;;;-10.82;63.30
50672;BME280;46021;55.882;37.654;2022-12-07T07:25:14;100636.69;;;-10.81;62.94
50672;BME280;46021;55.882;37.654;2022-12-07T07:27:41;100654.63;;;-10.65;63.22
50672;BME280;46021;55.882;37.654;2022-12-07T07:30:09;100657.34;;;-10.62;63.60
50672;BME280;46021;55.882;37.654;2022-12-07T07:32:36;100653.84;;;-10.64;63.61
50672;BME280;46021;55.882;37.654;2022-12-07T07:35:04;100646.50;;;-10.61;62.95
50672;BME280;46021;55.882;37.654;2022-12-07T07:37:31;100635.44;;;-10.63;63.66
50672;BME280;46021;55.882;37.654;2022-12-07T07:39:59;100649.63;;;-10.51;63.85
50672;BME280;46021;55.882;37.654;2022-12-07T07:42:27;100646.78;;;-10.44;63.85
50672;BME280;46021;55.882;37.654;2022-12-07T07:44:54;100635.94;;;-10.43;63.38
50672;BME280;46021;55.882;37.654;2022-12-07T07:47:21;100623.31;;;-10.43;62.93
50672;BME280;46021;55.882;37.654;2022-12-07T07:49:48;100635.88;;;-10.31;62.78
50672;BME280;46021;55.882;37.654;2022-12-07T07:52:15;100625.38;;;-10.37;63.67
50672;BME280;46021;55.882;37.654;2022-12-07T07:54:42;100628.56;;;-10.40;63.39
50672;BME280;46021;55.882;37.654;2022-12-07T07:57:09;100630.97;;;-10.28;63.34
50672;BME280;46021;55.882;37.654;2022-12-07T07:59:38;100634.50;;;-10.26;63.51
50672;BME280;46021;55.882;37.654;2022-12-07T08:02:05;100627.72;;;-10.14;62.73
50672;BME280;46021;55.882;37.654;2022-12-07T08:04:32;100613.41;;;-10.15;62.73
50672;BME280;46021;55.882;37.654;2022-12-07T08:06:59;100630.88;;;-10.05;62.81
50672;BME280;46021;55.882;37.654;2022-12-07T08:09:26;100626.44;;;-9.95;62.94
50672;BME280;46021;55.882;37.654;2022-12-07T08:11:53;100611.91;;;-9.86;62.96
50672;BME280;46021;55.882;37.654;2022-12-07T08:14:20;100616.34;;;-9.82;62.69
50672;BME280;46021;55.882;37.654;2022-12-07T08:16:49;100623.63;;;-9.73;61.98
50672;BME280;46021;55.882;37.654;2022-12-07T08:19:16;100605.97;;;-9.73;61.94
50672;BME280;46021;55.882;37.654;2022-12-07T08:21:43;100606.06;;;-9.72;61.77
50672;BME280;46021;55.882;37.654;2022-12-07T08:24:10;100599.19;;;-9.74;62.06
50672;BME280;46021;55.882;37.654;2022-12-07T08:26:37;100605.09;;;-9.61;61.73
50672;BME280;46021;55.882;37.654;2022-12-07T08:29:05;100602.31;;;-9.52;61.46
50672;BME280;46021;55.882;37.654;2022-12-07T08:31:32;100594.94;;;-9.49;61.45
50672;BME280;46021;55.882;37.654;2022-12-07T08:34:00;100598.59;;;-9.44;61.47
50672;BME280;46021;55.882;37.654;2022-12-07T08:36:28;100595.00;;;-8.92;63.49
50672;BME280;46021;55.882;37.654;2022-12-07T08:38:55;100597.53;;;-7.30;61.73
50672;BME280;46021;55.882;37.654;2022-12-07T08:41:22;100584.09;;;-5.44;58.82
50672;BME280;46021;55.882;37.654;2022-12-07T08:43:51;100591.81;;;-3.86;53.13
50672;BME280;46021;55.882;37.654;2022-12-07T08:46:21;100588.50;;;-2.50;52.71
50672;BME280;46021;55.882;37.654;2022-12-07T08:48:54;100581.28;;;-1.05;49.10
50672;BME280;46021;55.882;37.654;2022-12-07T08:51:24;100578.22;;;0.37;47.35
50672;BME280;46021;55.882;37.654;2022-12-07T08:53:52;100564.94;;;1.33;43.18
50672;BME280;46021;55.882;37.654;2022-12-07T08:56:20;100568.81;;;2.57;45.49
50672;BME280;46021;55.882;37.654;2022-12-07T08:58:48;100564.72;;;3.40;44.37
50672;BME280;46021;55.882;37.654;2022-12-07T09:01:15;100549.75;;;3.08;39.23
50672;BME280;46021;55.882;37.654;2022-12-07T09:03:42;100552.47;;;3.21;38.29
50672;BME280;46021;55.882;37.654;2022-12-07T09:06:09;100560.09;;;3.13;39.04
50672;BME280;46021;55.882;37.654;2022-12-07T09:08:41;100548.56;;;2.85;37.51
50672;BME280;46021;55.882;37.654;2022-12-07T09:11:09;100552.13;;;2.91;38.65
50672;BME280;46021;55.882;37.654;2022-12-07T09:13:36;100546.22;;;2.99;38.78
50672;BME280;46021;55.882;37.654;2022-12-07T09:16:04;100533.13;;;2.24;35.93
50672;BME280;46021;55.882;37.654;2022-12-07T09:18:31;100534.25;;;1.88;36.72
50672;BME280;46021;55.882;37.654;2022-12-07T09:20:58;100530.66;;;1.78;37.94
50672;BME280;46021;55.882;37.654;2022-12-07T09:23:25;100525.19;;;2.10;36.65
50672;BME280;46021;55.882;37.654;2022-12-07T09:25:54;100534.16;;;2.98;37.60
50672;BME280;46021;55.882;37.654;2022-12-07T09:28:21;100538.69;;;3.17;36.40
50672;BME280;46021;55.882;37.654;2022-12-07T09:30:49;100534.94;;;3.68;35.78
50672;BME280;46021;55.882;37.654;2022-12-07T09:33:16;100535.06;;;3.79;35.62
50672;BME280;46021;55.882;37.654;2022-12-07T09:35:47;100518.75;;;3.83;34.83
50672;BME280;46021;55.882;37.654;2022-12-07T09:38:14;100529.16;;;3.10;33.64
50672;BME280;46021;55.882;37.654;2022-12-07T09:40:42;100513.13;;;2.64;34.27
50672;BME280;46021;55.882;37.654;2022-12-07T09:43:14;100526.97;;;2.14;33.84
50672;BME280;46021;55.882;37.654;2022-12-07T09:45:42;100512.06;;;2.51;35.18
50672;BME280;46021;55.882;37.654;2022-12-07T09:48:17;100522.47;;;2.57;34.66
50672;BME280;46021;55.882;37.654;2022-12-07T09:50:46;100520.16;;;2.77;34.42
50672;BME280;46021;55.882;37.654;2022-12-07T09:53:15;100509.75;;;2.10;33.57
50672;BME280;46021;55.882;37.654;2022-12-07T09:55:45;100506.09;;;1.95;34.68
50672;BME280;46021;55.882;37.654;2022-12-07T09:58:19;100507.19;;;2.11;34.35
50672;BME280;46021;55.882;37.654;2022-12-07T10:00:47;100525.25;;;1.19;34.78
50672;BME280;46021;55.882;37.654;2022-12-07T10:03:15;100511.34;;;1.53;35.12
50672;BME280;46021;55.882;37.654;2022-12-07T10:05:44;100501.34;;;1.70;34.13
50672;BME280;46021;55.882;37.654;2022-12-07T10:08:13;100502.00;;;2.07;34.81
50672;BME280;46021;55.882;37.654;2022-12-07T10:10:41;100501.56;;;2.36;34.05
50672;BME280;46021;55.882;37.654;2022-12-07T10:13:09;100497.22;;;2.31;33.45
50672;BME280;46021;55.882;37.654;2022-12-07T10:15:44;100503.56;;;1.48;32.79
50672;BME280;46021;55.882;37.654;2022-12-07T10:18:26;100495.78;;;1.44;33.62
50672;BME280;46021;55.882;37.654;2022-12-07T10:21:15;100478.28;;;1.24;33.24
50672;BME280;46021;55.882;37.654;2022-12-07T10:23:59;100492.22;;;1.86;33.94
50672;BME280;46021;55.882;37.654;2022-12-07T10:26:29;100486.44;;;2.57;34.13
50672;BME280;46021;55.882;37.654;2022-12-07T10:28:59;100488.81;;;2.43;32.81
50672;BME280;46021;55.882;37.654;2022-12-07T10:31:29;100488.03;;;2.49;32.99
50672;BME280;46021;55.882;37.654;2022-12-07T10:33:58;100487.38;;;2.06;33.51
50672;BME280;46021;55.882;37.654;2022-12-07T10:36:27;100474.13;;;2.34;32.80
50672;BME280;46021;55.882;37.654;2022-12-07T10:39:03;100480.97;;;1.79;32.39
50672;BME280;46021;55.882;37.654;2022-12-07T10:41:31;100479.38;;;1.37;33.68
50672;BME280;46021;55.882;37.654;2022-12-07T10:43:58;100484.63;;;1.43;33.17
50672;BME280;46021;55.882;37.654;2022-12-07T10:49:37;100466.06;;;1.12;33.50
50672;BME280;46021;55.882;37.654;2022-12-07T10:52:12;100463.22;;;0.97;34.33
50672;BME280;46021;55.882;37.654;2022-12-07T10:54:48;100454.66;;;0.98;34.65
50672;BME280;46021;55.882;37.654;2022-12-07T10:57:39;100472.50;;;1.36;33.26
50672;BME280;46021;55.882;37.654;2022-12-07T11:00:15;100460.16;;;1.16;32.81
50672;BME280;46021;55.882;37.654;2022-12-07T11:05:54;100465.91;;;0.61;33.18
50672;BME280;46021;55.882;37.654;2022-12-07T11:08:38;100463.09;;;0.50;33.14
50672;BME280;46021;55.882;37.654;2022-12-07T11:11:09;100456.88;;;0.38;34.52
50672;BME280;46021;55.882;37.654;2022-12-07T11:13:44;100456.75;;;-0.06;34.81
50672;BME280;46021;55.882;37.654;2022-12-07T11:16:32;100458.75;;;-0.62;34.97
50672;BME280;46021;55.882;37.654;2022-12-07T11:19:17;100446.06;;;-0.89;35.60
50672;BME280;46021;55.882;37.654;2022-12-07T11:21:56;100440.03;;;-1.25;36.02
50672;BME280;46021;55.882;37.654;2022-12-07T11:24:27;100438.81;;;-1.66;36.52
50672;BME280;46021;55.882;37.654;2022-12-07T11:27:09;100432.09;;;-1.91;36.53
50672;BME280;46021;55.882;37.654;2022-12-07T11:32:51;100443.16;;;-1.64;37.15
50672;BME280;46021;55.882;37.654;2022-12-07T11:35:24;100442.75;;;-1.19;37.36
50672;BME280;46021;55.882;37.654;2022-12-07T11:38:01;100437.22;;;-2.19;36.78
50672;BME280;46021;55.882;37.654;2022-12-07T11:40:35;100439.03;;;-2.42;37.56
50672;BME280;46021;55.882;37.654;2022-12-07T11:43:06;100439.72;;;-2.71;37.45
50672;BME280;46021;55.882;37.654;2022-12-07T11:45:41;100448.31;;;-3.18;38.10
50672;BME280;46021;55.882;37.654;2022-12-07T11:48:14;100436.50;;;-3.40;38.72
50672;BME280;46021;55.882;37.654;2022-12-07T11:50:47;100445.13;;;-3.36;40.35
50672;BME280;46021;55.882;37.654;2022-12-07T11:53:19;100435.88;;;-3.10;38.96
50672;BME280;46021;55.882;37.654;2022-12-07T11:55:52;100437.31;;;-3.17;38.58
50672;BME280;46021;55.882;37.654;2022-12-07T11:58:35;100432.84;;;-3.46;39.59
50672;BME280;46021;55.882;37.654;2022-12-07T12:01:13;100422.03;;;-3.63;39.78
50672;BME280;46021;55.882;37.654;2022-12-07T12:03:45;100429.50;;;-3.68;39.85
50672;BME280;46021;55.882;37.654;2022-12-07T12:06:12;100425.56;;;-3.82;41.10
50672;BME280;46021;55.882;37.654;2022-12-07T12:08:42;100408.84;;;-3.98;40.52
50672;BME280;46021;55.882;37.654;2022-12-07T12:11:22;100419.53;;;-4.07;40.29
50672;BME280;46021;55.882;37.654;2022-12-07T12:14:04;100402.88;;;-4.20;41.53
50672;BME280;46021;55.882;37.654;2022-12-07T12:16:49;100408.31;;;-4.33;41.54
50672;BME280;46021;55.882;37.654;2022-12-07T12:19:30;100414.25;;;-4.75;41.76
50672;BME280;46021;55.882;37.654;2022-12-07T12:22:05;100404.34;;;-5.09;41.89
50672;BME280;46021;55.882;37.654;2022-12-07T12:24:37;100412.94;;;-5.46;42.55
50672;BME280;46021;55.882;37.654;2022-12-07T12:27:10;100413.22;;;-5.97;42.06
50672;BME280;46021;55.882;37.654;2022-12-07T12:29:43;100404.31;;;-6.77;44.55
50672;BME280;46021;55.882;37.654;2022-12-07T12:32:16;100415.72;;;-7.36;45.34
50672;BME280;46021;55.882;37.654;2022-12-07T12:35:21;100411.09;;;-8.07;48.47
50672;BME280;46021;55.882;37.654;2022-12-07T12:37:49;100416.88;;;-8.10;47.15
50672;BME280;46021;55.882;37.654;2022-12-07T12:40:43;100416.56;;;-8.31;48.18
50672;BME280;46021;55.882;37.654;2022-12-07T12:43:46;100402.25;;;-8.61;49.09
50672;BME280;46021;55.882;37.654;2022-12-07T12:49:43;100406.69;;;-8.87;49.17
50672;BME280;46021;55.882;37.654;2022-12-07T12:52:46;100401.09;;;-9.11;51.62
50672;BME280;46021;55.882;37.654;2022-12-07T12:58:40;100412.28;;;-9.36;52.86
50672;BME280;46021;55.882;37.654;2022-12-07T13:01:38;100405.91;;;-9.44;51.92
50672;BME280;46021;55.882;37.654;2022-12-07T13:04:23;100413.22;;;-9.49;51.82
50672;BME280;46021;55.882;37.654;2022-12-07T13:06:51;100402.94;;;-9.52;50.99
50672;BME280;46021;55.882;37.654;2022-12-07T13:09:21;100405.50;;;-9.65;53.03
50672;BME280;46021;55.882;37.654;2022-12-07T13:11:56;100417.31;;;-9.64;52.00
50672;BME280;46021;55.882;37.654;2022-12-07T13:14:52;100420.28;;;-9.71;53.16